Time;durP1;ratioP1;P1;durP2;ratioP2;P2;SDS_P1;SDS_P2;PMS_P1;PMS_P2;Temp;Humidity;BMP_temperature;BMP_pressure;BME280_temperature;BME280_humidity;BME280_pressure;Samples;Min_cycle;Max_cycle;Signal;HPM_P1;HPM_P2
2022/08/06 00:00:54;;;;;;;8.85;2.50;;;21.70;98.80;;;;;;5051986;28;20036;-60
2022/08/06 00:03:19;;;;;;;8.68;2.40;;;21.60;98.90;;;;;;5052209;28;20398;-60
2022/08/06 00:05:45;;;;;;;9.75;2.55;;;21.70;99.10;;;;;;5052073;28;20025;-60
2022/08/06 00:08:11;;;;;;;7.18;2.28;;;21.60;98.90;;;;;;5052124;28;20032;-60
2022/08/06 00:10:37;;;;;;;11.30;2.50;;;21.60;98.80;;;;;;5052074;28;20029;-60
2022/08/06 00:13:03;;;;;;;8.35;2.78;;;21.60;98.90;;;;;;5051880;28;20043;-60
2022/08/06 00:15:29;;;;;;;6.38;2.30;;;21.50;98.90;;;;;;5052179;28;20033;-60
2022/08/06 00:17:55;;;;;;;7.53;2.45;;;21.60;99.20;;;;;;5052030;28;20021;-60
2022/08/06 00:20:21;;;;;;;8.10;2.60;;;21.60;99.00;;;;;;5051538;28;20496;-60
2022/08/06 00:22:46;;;;;;;9.63;2.58;;;21.60;98.70;;;;;;5051796;28;20107;-60
2022/08/06 00:25:12;;;;;;;6.13;2.33;;;21.60;99.20;;;;;;5051846;28;20049;-60
2022/08/06 00:27:38;;;;;;;6.75;2.60;;;21.60;99.40;;;;;;5051742;28;20486;-60
2022/08/06 00:30:07;;;;;;;8.48;2.50;;;21.50;99.40;;;;;;5052177;28;20087;-60
2022/08/06 00:32:33;;;;;;;8.68;2.90;;;21.60;99.40;;;;;;5051395;28;20036;-60
2022/08/06 00:34:58;;;;;;;11.50;2.83;;;21.60;99.60;;;;;;5051665;28;20029;-60
2022/08/06 00:37:24;;;;;;;8.35;2.42;;;21.50;99.80;;;;;;5051689;28;20424;-60
2022/08/06 00:39:50;;;;;;;6.85;2.50;;;21.50;99.90;;;;;;5051670;28;20363;-60
2022/08/06 00:42:16;;;;;;;10.40;2.55;;;21.50;99.90;;;;;;5050396;28;20040;-60
2022/08/06 00:44:41;;;;;;;10.45;2.85;;;21.50;99.90;;;;;;5051584;28;20457;-60
2022/08/06 00:47:07;;;;;;;10.18;2.50;;;21.50;99.90;;;;;;5051682;28;20086;-60
2022/08/06 00:49:33;;;;;;;11.00;2.47;;;21.40;99.90;;;;;;5052232;28;20065;-60
2022/08/06 00:51:58;;;;;;;11.52;3.17;;;21.40;99.90;;;;;;5055692;28;20128;-60
2022/08/06 00:54:24;;;;;;;8.93;2.80;;;21.40;99.90;;;;;;5054824;28;20053;-60
2022/08/06 00:56:50;;;;;;;9.73;2.78;;;21.40;99.90;;;;;;5055614;28;20035;-60
2022/08/06 00:59:15;;;;;;;10.27;3.47;;;21.40;99.90;;;;;;5055501;28;20101;-60
2022/08/06 01:01:41;;;;;;;8.93;3.20;;;21.50;99.90;;;;;;5055280;28;20028;-60
2022/08/06 01:04:07;;;;;;;12.35;3.08;;;21.50;99.90;;;;;;5055357;28;20028;-60
2022/08/06 01:06:32;;;;;;;11.95;3.13;;;21.50;99.90;;;;;;5055477;28;20107;-60
2022/08/06 01:08:58;;;;;;;14.52;3.05;;;21.50;99.90;;;;;;5055367;28;20032;-60
2022/08/06 01:11:24;;;;;;;9.85;2.75;;;21.50;99.90;;;;;;5055276;28;20054;-60
2022/08/06 01:13:49;;;;;;;10.77;3.10;;;21.50;99.90;;;;;;5055204;28;20111;-60
2022/08/06 01:16:30;;;;;;;15.23;3.28;;;21.50;99.90;;;;;;5055326;28;20063;-60
2022/08/06 01:19:27;;;;;;;11.07;2.72;;;21.40;99.90;;;;;;5054771;28;20025;-60
2022/08/06 01:21:55;;;;;;;14.20;3.72;;;21.40;99.90;;;;;;5055228;28;20401;-60
2022/08/06 01:24:45;;;;;;;9.88;2.85;;;21.40;99.90;;;;;;5055099;28;20116;-60
2022/08/06 01:27:33;;;;;;;13.63;3.40;;;21.40;99.90;;;;;;5055195;28;20025;-60
2022/08/06 01:30:09;;;;;;;9.70;2.72;;;21.40;99.90;;;;;;5055100;28;20021;-60
2022/08/06 01:32:54;;;;;;;12.02;3.40;;;21.30;99.90;;;;;;5054737;28;20029;-60
2022/08/06 01:35:27;;;;;;;16.10;3.50;;;21.40;99.90;;;;;;5054997;28;20433;-60
2022/08/06 01:38:36;;;;;;;14.32;3.65;;;21.40;99.90;;;;;;5054803;28;20028;-60
2022/08/06 01:41:05;;;;;;;10.60;3.15;;;21.20;99.90;;;;;;5051686;28;20039;-60
2022/08/06 01:43:32;;;;;;;12.90;3.40;;;21.30;99.90;;;;;;5053935;28;20056;-60
2022/08/06 01:45:59;;;;;;;13.57;3.28;;;21.20;99.90;;;;;;5053494;28;20017;-60
2022/08/06 01:48:27;;;;;;;13.57;3.10;;;21.20;99.90;;;;;;5052324;28;20405;-61
2022/08/06 01:50:55;;;;;;;14.27;3.20;;;21.20;99.90;;;;;;5053715;28;20021;-60
2022/08/06 01:53:27;;;;;;;10.85;3.30;;;21.20;99.90;;;;;;5052052;28;20094;-60
2022/08/06 01:56:00;;;;;;;9.43;2.70;;;21.20;99.90;;;;;;5053529;28;20055;-60
2022/08/06 01:58:33;;;;;;;12.70;3.13;;;21.20;99.90;;;;;;5053593;28;20567;-61
2022/08/06 02:01:01;;;;;;;;;;;21.20;99.90;;;;;;5052748;28;20025;-60
2022/08/06 02:03:49;;;;;;;11.15;2.95;;;21.10;99.90;;;;;;5053204;28;19909;-60
2022/08/06 02:06:22;;;;;;;11.00;3.13;;;21.00;99.90;;;;;;5053103;28;20780;-60
2022/08/06 02:08:51;;;;;;;14.48;3.63;;;21.10;99.90;;;;;;5053640;28;20060;-60
2022/08/06 02:11:17;;;;;;;13.02;3.30;;;20.90;99.90;;;;;;5052982;28;20033;-60
2022/08/06 02:13:44;;;;;;;9.68;3.20;;;20.90;99.90;;;;;;5053003;28;20033;-60
2022/08/06 02:16:11;;;;;;;13.50;3.25;;;20.90;99.90;;;;;;5052809;28;20024;-59
2022/08/06 02:18:41;;;;;;;12.80;3.40;;;20.90;99.90;;;;;;5053531;28;20059;-60
2022/08/06 02:21:16;;;;;;;11.68;3.30;;;20.80;99.90;;;;;;5053029;28;20120;-60
2022/08/06 02:23:44;;;;;;;14.23;3.00;;;20.80;99.90;;;;;;5052920;28;20033;-60
2022/08/06 02:26:11;;;;;;;13.48;3.67;;;20.70;99.90;;;;;;5053198;28;20482;-60
2022/08/06 02:28:39;;;;;;;13.80;3.53;;;20.60;99.90;;;;;;5052783;28;20116;-59
2022/08/06 02:31:05;;;;;;;10.77;3.47;;;20.60;99.90;;;;;;5052657;28;20473;-60
2022/08/06 02:33:31;;;;;;;10.98;3.22;;;20.60;99.90;;;;;;5052649;28;20040;-60
2022/08/06 02:36:05;;;;;;;7.07;2.78;;;20.60;99.90;;;;;;5052733;28;20033;-60
2022/08/06 02:38:52;;;;;;;11.30;3.53;;;20.60;99.90;;;;;;5052591;28;20040;-60
2022/08/06 02:41:34;;;;;;;13.48;3.65;;;20.60;99.90;;;;;;5052597;28;20025;-60
2022/08/06 02:44:09;;;;;;;12.82;4.07;;;20.40;99.90;;;;;;5002607;28;1438679;-60
2022/08/06 02:46:44;;;;;;;10.75;3.25;;;20.40;99.90;;;;;;5053999;28;20047;-60
2022/08/06 02:49:17;;;;;;;7.13;2.97;;;20.30;99.90;;;;;;5053315;28;20037;-60
2022/08/06 02:51:51;;;;;;;11.73;3.10;;;20.30;99.90;;;;;;5053289;28;20025;-60
2022/08/06 02:54:34;;;;;;;10.00;3.42;;;20.30;99.90;;;;;;5053530;28;20402;-60
2022/08/06 02:57:03;;;;;;;10.65;3.10;;;20.40;99.90;;;;;;5053291;28;20029;-60
2022/08/06 02:59:33;;;;;;;7.00;2.65;;;20.40;99.90;;;;;;5053316;28;20021;-60
2022/08/06 03:02:02;;;;;;;10.50;3.00;;;20.40;99.90;;;;;;5053293;28;20059;-60
2022/08/06 03:04:30;;;;;;;9.70;3.10;;;20.40;99.90;;;;;;5053192;28;20056;-60
2022/08/06 03:06:58;;;;;;;8.35;3.10;;;20.40;99.90;;;;;;5053107;28;20024;-60
2022/08/06 03:09:25;;;;;;;8.95;3.17;;;20.30;99.90;;;;;;5053027;28;20078;-60
2022/08/06 03:11:51;;;;;;;11.02;3.10;;;20.30;99.90;;;;;;5052381;28;20048;-60
2022/08/06 03:14:19;;;;;;;10.32;3.28;;;20.30;99.90;;;;;;5052431;28;20044;-60
2022/08/06 03:16:45;;;;;;;6.03;2.70;;;20.30;99.90;;;;;;5053272;28;20021;-60
2022/08/06 03:19:12;;;;;;;12.85;3.13;;;20.20;99.90;;;;;;5053365;28;20033;-60
2022/08/06 03:21:40;;;;;;;10.48;3.10;;;20.10;99.90;;;;;;5052808;28;20033;-60
2022/08/06 03:24:08;;;;;;;8.23;2.80;;;20.00;99.90;;;;;;5052790;28;20477;-60
2022/08/06 03:26:35;;;;;;;11.68;3.55;;;20.10;99.90;;;;;;5052693;28;20036;-60
2022/08/06 03:29:02;;;;;;;9.50;3.38;;;20.00;99.90;;;;;;5052499;28;20386;-60
2022/08/06 03:31:30;;;;;;;9.30;3.20;;;19.90;99.90;;;;;;5052780;28;20037;-60
2022/08/06 03:33:57;;;;;;;12.75;3.58;;;20.00;99.90;;;;;;5052729;28;20025;-60
2022/08/06 03:36:23;;;;;;;8.75;3.15;;;19.90;99.90;;;;;;5052991;28;20029;-60
2022/08/06 03:38:54;;;;;;;10.40;3.40;;;19.90;99.90;;;;;;5051797;28;20029;-60
2022/08/06 03:41:20;;;;;;;9.90;3.50;;;19.90;99.90;;;;;;5052804;28;20029;-60
2022/08/06 03:43:46;;;;;;;11.18;3.55;;;19.90;99.90;;;;;;5051884;28;20053;-60
2022/08/06 03:46:15;;;;;;;11.23;3.40;;;20.00;99.90;;;;;;5052478;28;20043;-60
2022/08/06 03:48:42;;;;;;;8.43;3.03;;;20.00;99.90;;;;;;5052503;28;20025;-60
2022/08/06 03:51:17;;;;;;;11.32;3.25;;;19.80;99.90;;;;;;5052251;28;20408;-60
2022/08/06 03:53:45;;;;;;;10.95;3.20;;;19.80;99.90;;;;;;5052589;28;20051;-60
2022/08/06 03:56:16;;;;;;;10.55;2.75;;;19.70;99.90;;;;;;5052399;28;20393;-60
2022/08/06 03:58:44;;;;;;;8.15;2.75;;;19.80;99.90;;;;;;5052271;28;20029;-60
2022/08/06 04:01:14;;;;;;;11.30;3.17;;;19.80;99.90;;;;;;5052454;28;20386;-60
2022/08/06 04:03:41;;;;;;;8.57;3.35;;;19.80;99.90;;;;;;5052098;28;20490;-60
2022/08/06 04:06:10;;;;;;;7.60;2.90;;;19.70;99.90;;;;;;5052027;28;20031;-60
2022/08/06 04:08:38;;;;;;;8.73;2.83;;;19.70;99.90;;;;;;5051885;28;20017;-60
2022/08/06 04:11:06;;;;;;;12.65;3.53;;;19.70;99.90;;;;;;5051742;28;20048;-61
2022/08/06 04:13:32;;;;;;;5.72;3.08;;;19.70;99.90;;;;;;5052243;28;20114;-60
2022/08/06 04:15:58;;;;;;;10.05;3.20;;;19.60;99.90;;;;;;5051963;28;20021;-60
2022/08/06 04:18:29;;;;;;;6.55;3.17;;;19.60;99.90;;;;;;5051837;28;20398;-60
2022/08/06 04:21:00;;;;;;;8.45;2.90;;;19.60;99.90;;;;;;5051866;28;20389;-60
2022/08/06 04:23:26;;;;;;;8.77;3.20;;;19.50;99.90;;;;;;5051706;28;20025;-61
2022/08/06 04:25:56;;;;;;;6.35;2.80;;;19.40;99.90;;;;;;5051760;28;20394;-60
2022/08/06 04:28:26;;;;;;;8.18;3.10;;;19.40;99.90;;;;;;5052034;28;20035;-60
2022/08/06 04:30:53;;;;;;;10.68;3.10;;;19.40;99.90;;;;;;5051781;28;20025;-60
2022/08/06 04:33:21;;;;;;;7.63;3.65;;;19.30;99.90;;;;;;5050408;28;20037;-60
2022/08/06 04:35:48;;;;;;;10.13;3.63;;;19.30;99.90;;;;;;5051696;28;20087;-60
2022/08/06 04:38:16;;;;;;;12.15;4.07;;;19.40;99.90;;;;;;5050201;28;20028;-60
2022/08/06 04:40:42;;;;;;;8.25;3.67;;;19.30;99.90;;;;;;5051920;28;20104;-60
2022/08/06 04:43:10;;;;;;;8.90;3.53;;;19.20;99.90;;;;;;5051573;28;20049;-60
2022/08/06 04:45:38;;;;;;;9.43;3.10;;;19.20;99.90;;;;;;5051811;28;20021;-60
2022/08/06 04:48:07;;;;;;;7.05;3.70;;;19.20;99.90;;;;;;5051838;28;20033;-60
2022/08/06 04:50:34;;;;;;;6.78;3.42;;;19.10;99.90;;;;;;5051561;28;20389;-59
2022/08/06 04:53:16;;;;;;;10.07;4.20;;;19.10;99.90;;;;;;5051552;28;20061;-60
2022/08/06 04:55:43;;;;;;;7.93;3.30;;;19.10;99.90;;;;;;5051265;28;20079;-60
2022/08/06 04:58:10;;;;;;;9.60;3.72;;;19.00;99.90;;;;;;5051661;28;20040;-60
2022/08/06 05:00:39;;;;;;;10.57;3.85;;;19.00;99.90;;;;;;5051501;28;20032;-60
2022/08/06 05:03:04;;;;;;;7.63;3.40;;;19.00;99.90;;;;;;5051859;28;20025;-60
2022/08/06 05:05:58;;;;;;;9.38;3.70;;;19.10;99.90;;;;;;5051351;28;20029;-60
2022/08/06 05:08:26;;;;;;;9.45;3.90;;;19.00;99.90;;;;;;5051520;28;20402;-60
2022/08/06 05:11:01;;;;;;;11.20;4.35;;;18.90;99.90;;;;;;5050951;28;20481;-60
2022/08/06 05:13:33;;;;;;;7.35;3.50;;;18.80;99.90;;;;;;5051319;28;20037;-60
2022/08/06 05:16:03;;;;;;;10.75;3.80;;;18.90;99.90;;;;;;5051544;28;20025;-60
2022/08/06 05:18:42;;;;;;;7.78;3.80;;;18.90;99.90;;;;;;5051306;28;20440;-60
2022/08/06 05:21:10;;;;;;;9.40;3.70;;;18.90;99.90;;;;;;5051703;28;20021;-60
2022/08/06 05:23:46;;;;;;;5.85;3.50;;;18.90;99.90;;;;;;5051046;28;20017;-60
2022/08/06 05:26:13;;;;;;;6.75;3.65;;;18.90;99.90;;;;;;5051101;28;20446;-60
2022/08/06 05:28:40;;;;;;;10.15;3.90;;;19.00;99.90;;;;;;5051400;28;20100;-60
2022/08/06 05:31:06;;;;;;;8.02;3.55;;;18.90;99.90;;;;;;5051151;28;20033;-60
2022/08/06 05:33:37;;;;;;;10.27;3.90;;;19.00;99.90;;;;;;5051242;28;20067;-60
2022/08/06 05:36:05;;;;;;;7.45;3.67;;;19.00;99.90;;;;;;5052898;28;20028;-60
2022/08/06 05:38:33;;;;;;;11.57;3.70;;;18.90;99.90;;;;;;5054287;28;20029;-60
2022/08/06 05:40:59;;;;;;;8.93;3.90;;;18.90;99.90;;;;;;5055174;28;20025;-60
2022/08/06 05:43:25;;;;;;;7.95;3.50;;;18.90;99.90;;;;;;5054619;28;20521;-60
2022/08/06 05:45:54;;;;;;;9.60;3.60;;;19.00;99.90;;;;;;5054837;28;20036;-60
2022/08/06 05:48:21;;;;;;;6.10;3.28;;;19.10;99.90;;;;;;5054980;28;20041;-60
2022/08/06 05:50:53;;;;;;;6.38;3.65;;;19.10;99.90;;;;;;5054571;28;20013;-60
2022/08/06 05:53:26;;;;;;;6.40;3.38;;;19.20;99.90;;;;;;5054462;28;20033;-60
2022/08/06 05:55:56;;;;;;;5.97;3.88;;;19.20;99.90;;;;;;5054804;28;20116;-60
2022/08/06 05:58:35;;;;;;;6.68;3.63;;;19.30;99.90;;;;;;5054417;28;20059;-60
2022/08/06 06:01:03;;;;;;;5.65;3.53;;;19.20;99.90;;;;;;5054402;28;20021;-60
2022/08/06 06:03:30;;;;;;;5.88;3.70;;;19.30;99.90;;;;;;5054260;28;20032;-60
2022/08/06 06:05:58;;;;;;;5.63;3.00;;;19.40;99.90;;;;;;5054329;28;20025;-60
2022/08/06 06:08:24;;;;;;;9.18;3.55;;;19.50;99.90;;;;;;5054071;28;20406;-60
2022/08/06 06:10:51;;;;;;;7.85;3.60;;;19.60;99.90;;;;;;5054268;28;20028;-60
2022/08/06 06:13:17;;;;;;;9.77;3.75;;;19.60;99.90;;;;;;5054600;28;20045;-60
2022/08/06 06:15:54;;;;;;;7.35;3.72;;;19.70;99.90;;;;;;5052906;28;20021;-60
2022/08/06 06:18:53;;;;;;;10.23;3.90;;;19.80;99.90;;;;;;5054064;28;20044;-60
2022/08/06 06:21:45;;;;;;;5.93;3.03;;;20.00;99.90;;;;;;5053796;28;20104;-60
2022/08/06 06:24:36;;;;;;;8.90;3.60;;;20.20;99.90;;;;;;5053890;28;20512;-60
2022/08/06 06:27:18;;;;;;;5.55;3.25;;;20.60;99.90;;;;;;5053957;28;20525;-60
2022/08/06 06:29:53;;;;;;;11.45;3.70;;;21.00;99.90;;;;;;5052734;28;20378;-60
2022/08/06 06:32:54;;;;;;;10.18;3.60;;;21.30;99.90;;;;;;5053775;28;20033;-60
2022/08/06 06:36:02;;;;;;;6.88;3.40;;;21.70;99.90;;;;;;5054082;28;20078;-60
2022/08/06 06:38:57;;;;;;;7.13;3.25;;;22.20;99.90;;;;;;5050965;28;20108;-60
2022/08/06 06:41:49;;;;;;;5.72;3.25;;;22.60;99.90;;;;;;5053968;28;20074;-60
2022/08/06 06:44:18;;;;;;;6.65;3.33;;;23.10;99.90;;;;;;5053736;28;20102;-60
2022/08/06 06:46:53;;;;;;;4.43;2.67;;;23.50;99.90;;;;;;5052994;28;20500;-60
2022/08/06 06:49:28;;;;;;;6.63;3.08;;;23.90;99.90;;;;;;5054031;28;20029;-60
2022/08/06 06:52:01;;;;;;;4.95;2.60;;;24.20;99.90;;;;;;5053440;28;20033;-60
2022/08/06 06:54:32;;;;;;;4.45;2.47;;;24.70;99.90;;;;;;5053726;28;20510;-60
2022/08/06 06:57:02;;;;;;;4.20;2.65;;;25.10;99.90;;;;;;5053455;28;20033;-61
2022/08/06 06:59:34;;;;;;;8.02;2.80;;;25.50;99.90;;;;;;5053655;28;20166;-60
2022/08/06 07:02:02;;;;;;;4.45;2.55;;;25.90;99.30;;;;;;5053402;28;20021;-60
2022/08/06 07:04:29;;;;;;;5.32;2.60;;;26.10;98.30;;;;;;5052558;28;20104;-60
2022/08/06 07:06:57;;;;;;;5.28;2.90;;;26.30;97.60;;;;;;5053128;28;20488;-60
2022/08/06 07:09:26;;;;;;;6.03;2.55;;;26.50;96.10;;;;;;5053469;28;20029;-60
2022/08/06 07:11:55;;;;;;;5.15;2.63;;;26.80;96.30;;;;;;5053566;28;20041;-60
2022/08/06 07:14:23;;;;;;;3.67;2.53;;;27.00;95.30;;;;;;5053086;28;20106;-60
2022/08/06 07:16:53;;;;;;;8.02;2.80;;;27.20;95.00;;;;;;5053219;28;20021;-60
2022/08/06 07:19:19;;;;;;;4.97;2.50;;;27.40;94.30;;;;;;5052908;28;20025;-60
2022/08/06 07:21:47;;;;;;;5.60;2.35;;;27.60;94.00;;;;;;5053126;28;20028;-60
2022/08/06 07:24:15;;;;;;;5.38;2.60;;;28.00;93.50;;;;;;5052931;28;20056;-60
2022/08/06 07:26:45;;;;;;;4.38;2.30;;;28.50;93.50;;;;;;5051842;28;20025;-60
2022/08/06 07:29:14;;;;;;;3.88;2.50;;;28.60;92.90;;;;;;5053312;28;20559;-60
2022/08/06 07:31:40;;;;;;;5.22;2.15;;;28.70;92.70;;;;;;5052726;28;20029;-60
2022/08/06 07:34:06;;;;;;;4.88;2.30;;;29.20;92.40;;;;;;5052618;28;20033;-60
2022/08/06 07:36:36;;;;;;;4.80;2.20;;;29.20;91.10;;;;;;5051565;28;20090;-60
2022/08/06 07:39:09;;;;;;;4.57;2.45;;;29.40;91.20;;;;;;5052628;28;20029;-60
2022/08/06 07:41:36;;;;;;;3.63;2.23;;;29.80;91.60;;;;;;5052743;28;20076;-60
2022/08/06 07:44:05;;;;;;;3.20;2.30;;;29.90;90.00;;;;;;5053008;28;20057;-60
2022/08/06 07:46:42;;;;;;;7.10;2.45;;;29.90;90.00;;;;;;5052613;28;20016;-60
2022/08/06 07:49:11;;;;;;;3.80;2.10;;;30.20;90.30;;;;;;5052301;28;20104;-60
2022/08/06 07:51:40;;;;;;;4.57;2.20;;;30.40;88.80;;;;;;5052348;28;20033;-60
2022/08/06 07:54:07;;;;;;;3.35;1.90;;;30.40;89.30;;;;;;5052510;28;20517;-60
2022/08/06 07:56:35;;;;;;;4.80;2.10;;;30.80;87.90;;;;;;5051418;28;20017;-60
2022/08/06 07:59:03;;;;;;;5.30;2.00;;;31.00;88.00;;;;;;5052031;28;20449;-60
2022/08/06 08:01:29;;;;;;;7.25;2.10;;;31.20;87.20;;;;;;5052688;28;20017;-60
2022/08/06 08:06:41;;;;;;;5.15;1.85;;;31.20;86.70;;;;;;5052649;28;20071;-60
2022/08/06 08:09:15;;;;;;;2.45;1.80;;;31.50;86.30;;;;;;5052294;28;20048;-60
2022/08/06 08:11:44;;;;;;;3.92;2.20;;;31.70;86.10;;;;;;5052537;28;20021;-60
2022/08/06 08:14:12;;;;;;;3.15;1.98;;;31.70;85.00;;;;;;5052156;28;20063;-60
2022/08/06 08:16:40;;;;;;;4.07;1.63;;;31.70;85.30;;;;;;5051922;28;20029;-59
2022/08/06 08:19:24;;;;;;;6.65;2.20;;;32.20;84.80;;;;;;5051855;28;20029;-59
2022/08/06 08:21:56;;;;;;;4.00;2.08;;;32.40;83.10;;;;;;5052207;28;20087;-60
2022/08/06 08:24:23;;;;;;;5.65;2.10;;;32.30;82.90;;;;;;5052163;28;20037;-59
2022/08/06 08:26:48;;;;;;;3.60;2.20;;;32.60;82.90;;;;;;5052082;28;20017;-60
2022/08/06 08:29:14;;;;;;;2.90;1.92;;;32.90;83.00;;;;;;5052033;28;20468;-60
2022/08/06 08:31:40;;;;;;;5.13;2.00;;;33.10;81.50;;;;;;5052299;28;20025;-60
2022/08/06 08:34:06;;;;;;;3.55;2.10;;;33.10;81.80;;;;;;5051561;28;20127;-60
2022/08/06 08:36:32;;;;;;;4.25;1.80;;;33.10;80.60;;;;;;5052101;28;20021;-60
2022/08/06 08:38:58;;;;;;;3.97;2.17;;;33.10;80.40;;;;;;5052150;28;20033;-60
2022/08/06 08:41:30;;;;;;;5.93;2.20;;;33.20;81.20;;;;;;5052002;28;20056;-59
2022/08/06 08:44:04;;;;;;;3.72;1.98;;;33.40;80.40;;;;;;5051854;28;20052;-60
2022/08/06 08:46:42;;;;;;;4.57;2.20;;;33.90;81.00;;;;;;5051562;28;20064;-60
2022/08/06 08:49:18;;;;;;;5.30;1.90;;;33.70;79.30;;;;;;5051944;28;20024;-60
2022/08/06 08:51:46;;;;;;;3.55;2.33;;;33.80;79.20;;;;;;5051540;28;20057;-60
2022/08/06 08:54:16;;;;;;;2.95;1.83;;;33.90;78.50;;;;;;5052191;28;20086;-59
2022/08/06 08:56:44;;;;;;;3.75;2.10;;;34.10;78.70;;;;;;5051892;28;20074;-60
2022/08/06 08:59:09;;;;;;;3.13;1.92;;;34.40;78.70;;;;;;5051700;28;20116;-60
2022/08/06 09:01:35;;;;;;;2.60;2.05;;;34.70;77.70;;;;;;5051322;28;20104;-60
2022/08/06 09:04:03;;;;;;;4.70;1.83;;;34.70;76.40;;;;;;5051946;28;20032;-60
2022/08/06 09:06:29;;;;;;;3.13;1.85;;;34.70;77.60;;;;;;5052186;28;20043;-60
2022/08/06 09:08:55;;;;;;;4.57;1.75;;;34.70;77.00;;;;;;5051806;28;20028;-60
2022/08/06 09:11:22;;;;;;;5.43;2.15;;;34.70;76.80;;;;;;5054437;28;20420;-60
2022/08/06 09:13:48;;;;;;;3.95;1.90;;;34.70;76.30;;;;;;5055335;28;20068;-60
2022/08/06 09:16:13;;;;;;;4.20;2.08;;;34.70;76.50;;;;;;5055260;28;20025;-60
2022/08/06 09:18:39;;;;;;;5.32;1.83;;;34.50;76.00;;;;;;5055531;28;20072;-60
2022/08/06 09:21:05;;;;;;;6.07;2.20;;;34.70;76.80;;;;;;5055485;28;20029;-60
2022/08/06 09:23:31;;;;;;;3.63;1.77;;;35.00;75.40;;;;;;5055646;28;20028;-60
2022/08/06 09:25:57;;;;;;;3.15;1.77;;;35.00;75.10;;;;;;5055495;28;20029;-60
2022/08/06 09:28:35;;;;;;;4.65;2.10;;;35.10;76.30;;;;;;5055268;28;20017;-59
2022/08/06 09:31:04;;;;;;;6.55;1.80;;;35.20;75.70;;;;;;5054839;28;20031;-60
2022/08/06 09:33:32;;;;;;;5.68;2.00;;;35.50;75.40;;;;;;5055235;28;20488;-59
2022/08/06 09:36:01;;;;;;;4.93;1.90;;;35.60;75.50;;;;;;5055262;28;20486;-60
2022/08/06 09:38:28;;;;;;;3.83;1.88;;;35.70;73.80;;;;;;5055049;28;20025;-60
2022/08/06 09:41:08;;;;;;;4.03;1.90;;;35.80;75.20;;;;;;5055303;28;20021;-60
2022/08/06 09:43:35;;;;;;;3.58;1.88;;;36.10;75.10;;;;;;5054818;28;20048;-60
2022/08/06 09:46:01;;;;;;;6.57;1.90;;;35.90;74.60;;;;;;5054744;28;20026;-60
2022/08/06 09:48:27;;;;;;;3.58;2.05;;;36.20;75.00;;;;;;5055440;28;20098;-60
2022/08/06 09:50:52;;;;;;;3.38;2.20;;;36.10;73.00;;;;;;5054620;28;20393;-60
2022/08/06 09:53:21;;;;;;;4.70;2.15;;;35.60;73.30;;;;;;5054925;28;20025;-59
2022/08/06 09:55:47;;;;;;;3.92;2.00;;;35.80;73.10;;;;;;5054670;28;20048;-60
2022/08/06 09:58:13;;;;;;;2.83;2.03;;;35.90;73.90;;;;;;5055097;28;20075;-60
2022/08/06 10:00:39;;;;;;;5.25;1.90;;;36.10;73.50;;;;;;5053525;28;20036;-60
2022/08/06 10:03:09;;;;;;;2.63;2.10;;;35.60;73.00;;;;;;5054751;28;20029;-60
2022/08/06 10:05:35;;;;;;;4.68;2.08;;;35.20;73.90;;;;;;5054646;28;20087;-60
2022/08/06 10:08:08;;;;;;;3.40;1.92;;;35.00;73.60;;;;;;5054760;28;20489;-60
2022/08/06 10:10:48;;;;;;;5.07;2.03;;;34.90;74.40;;;;;;5054561;28;20022;-60
2022/08/06 10:13:27;;;;;;;4.35;1.90;;;34.70;74.30;;;;;;5053364;28;20053;-60
2022/08/06 10:15:54;;;;;;;5.13;1.98;;;34.80;73.90;;;;;;5054290;28;20457;-59
2022/08/06 10:18:30;;;;;;;3.00;1.70;;;34.90;74.70;;;;;;5053568;28;20573;-60
2022/08/06 10:21:14;;;;;;;3.70;2.10;;;34.60;73.80;;;;;;5054089;28;20057;-59
2022/08/06 10:23:41;;;;;;;5.18;1.83;;;33.90;73.50;;;;;;5054288;28;20021;-60
2022/08/06 10:26:10;;;;;;;5.82;2.10;;;33.80;75.00;;;;;;5054087;28;20059;-60
2022/08/06 10:28:38;;;;;;;7.22;1.90;;;34.20;73.70;;;;;;5054008;28;20023;-60
2022/08/06 10:31:10;;;;;;;4.88;2.30;;;33.70;74.80;;;;;;5054087;28;20039;-60
2022/08/06 10:34:13;;;;;;;4.55;2.10;;;33.80;74.40;;;;;;5053996;28;20048;-60
2022/08/06 10:36:49;;;;;;;5.10;2.10;;;33.90;75.40;;;;;;5051431;28;20071;-60
2022/08/06 10:39:15;;;;;;;2.95;1.90;;;33.80;75.40;;;;;;5054186;28;20087;-60
2022/08/06 10:41:43;;;;;;;3.53;2.38;;;33.50;74.50;;;;;;5053777;28;20135;-60
2022/08/06 10:44:11;;;;;;;4.05;2.10;;;33.10;75.00;;;;;;5053631;28;20122;-59
2022/08/06 10:46:36;;;;;;;4.95;1.77;;;33.20;75.20;;;;;;5053961;28;20381;-59
2022/08/06 10:49:05;;;;;;;2.78;1.90;;;33.00;75.60;;;;;;5053781;28;20029;-59
2022/08/06 10:51:32;;;;;;;4.30;1.83;;;33.30;76.40;;;;;;5052378;28;20100;-60
2022/08/06 10:53:57;;;;;;;4.35;2.15;;;33.30;74.80;;;;;;5052377;28;20037;-60
2022/08/06 10:56:26;;;;;;;3.10;1.80;;;33.30;76.10;;;;;;5054084;28;20525;-59
2022/08/06 10:58:53;;;;;;;3.63;1.90;;;33.30;74.40;;;;;;5053154;28;20505;-59
2022/08/06 11:01:36;;;;;;;4.40;2.08;;;33.20;75.60;;;;;;5053551;28;20029;-60
2022/08/06 11:04:21;;;;;;;5.00;1.83;;;33.60;75.10;;;;;;5053913;28;20502;-60
2022/08/06 11:06:52;;;;;;;3.15;1.80;;;33.10;74.00;;;;;;5053477;28;20028;-59
2022/08/06 11:09:31;;;;;;;3.80;1.90;;;32.90;75.20;;;;;;5053396;28;20394;-59
2022/08/06 11:12:29;;;;;;;3.22;1.63;;;33.20;74.10;;;;;;5053135;28;20390;-60
2022/08/06 11:14:56;;;;;;;3.53;1.80;;;33.50;75.20;;;;;;5053368;28;20037;-59
2022/08/06 11:17:22;;;;;;;2.33;1.80;;;33.60;74.80;;;;;;5053219;28;20033;-59
2022/08/06 11:19:49;;;;;;;2.60;1.70;;;33.20;73.90;;;;;;5053556;28;20477;-60
2022/08/06 11:22:38;;;;;;;5.10;2.00;;;33.00;73.70;;;;;;5052957;28;20064;-59
2022/08/06 11:25:08;;;;;;;6.07;1.98;;;33.10;75.40;;;;;;5053057;28;20059;-60
2022/08/06 11:27:56;;;;;;;3.70;1.90;;;33.50;74.90;;;;;;5052556;28;20505;-60
2022/08/06 11:30:37;;;;;;;3.50;1.92;;;33.20;73.90;;;;;;5052958;28;20025;-60
2022/08/06 11:33:02;;;;;;;5.22;2.20;;;33.40;73.70;;;;;;5052183;28;20037;-59
2022/08/06 11:35:34;;;;;;;2.80;2.15;;;33.40;74.00;;;;;;5052953;28;20028;-59
2022/08/06 11:38:08;;;;;;;6.00;2.10;;;33.30;73.10;;;;;;5052823;28;20021;-59
2022/08/06 11:40:56;;;;;;;3.25;2.10;;;32.90;73.60;;;;;;5052355;28;20029;-59
2022/08/06 11:43:40;;;;;;;3.08;2.08;;;33.30;75.00;;;;;;5052532;28;20571;-59
2022/08/06 11:46:26;;;;;;;3.80;1.92;;;33.40;72.80;;;;;;5053232;28;20071;-59
2022/08/06 11:49:03;;;;;;;3.28;2.00;;;33.30;74.10;;;;;;5052692;28;20040;-59
2022/08/06 11:51:53;;;;;;;4.13;2.08;;;33.30;73.40;;;;;;5052543;28;20032;-59
2022/08/06 11:54:22;;;;;;;4.82;1.80;;;33.00;73.10;;;;;;5052635;28;20524;-59
2022/08/06 11:57:09;;;;;;;4.70;2.17;;;33.10;74.10;;;;;;5052459;28;20040;-59
2022/08/06 11:59:38;;;;;;;5.30;2.00;;;32.70;73.70;;;;;;5052387;28;20427;-59
2022/08/06 12:02:06;;;;;;;2.90;2.00;;;32.80;73.60;;;;;;5052922;28;20055;-60
2022/08/06 12:04:35;;;;;;;3.05;2.15;;;33.00;74.60;;;;;;5052491;28;20024;-59
2022/08/06 12:07:18;;;;;;;2.78;2.00;;;33.20;74.20;;;;;;5052302;28;20029;-59
2022/08/06 12:09:45;;;;;;;8.33;5.37;;;33.40;75.20;;;;;;5052127;28;20465;-60
2022/08/06 12:12:27;;;;;;;7.43;3.75;;;33.40;73.20;;;;;;5052678;28;20028;-59
2022/08/06 12:14:55;;;;;;;3.65;2.00;;;33.10;72.80;;;;;;5052692;28;20441;-59
2022/08/06 12:17:25;;;;;;;4.38;2.00;;;33.00;72.80;;;;;;5052167;28;20553;-59
2022/08/06 12:19:53;;;;;;;4.15;2.25;;;33.00;73.60;;;;;;5052199;28;20541;-59
2022/08/06 12:22:21;;;;;;;6.45;2.30;;;33.10;72.70;;;;;;5052282;28;20545;-59
2022/08/06 12:24:54;;;;;;;3.35;2.10;;;32.80;72.50;;;;;;5051010;28;20028;-59
2022/08/06 12:27:23;;;;;;;5.67;2.40;;;32.60;72.80;;;;;;5052131;28;20394;-59
2022/08/06 12:29:57;;;;;;;2.40;1.98;;;32.70;74.00;;;;;;5051994;28;20021;-59
2022/08/06 12:32:27;;;;;;;5.28;2.25;;;32.60;73.40;;;;;;5052054;28;20090;-60
2022/08/06 12:34:55;;;;;;;6.53;2.53;;;32.80;72.90;;;;;;5051984;28;20021;-59
2022/08/06 12:37:32;;;;;;;2.90;2.20;;;32.70;73.20;;;;;;5052512;28;20111;-59
2022/08/06 12:42:42;;;;;;;4.38;1.85;;;32.90;74.70;;;;;;5051940;28;20078;-59
2022/08/06 12:45:10;;;;;;;3.90;2.10;;;33.20;74.20;;;;;;5053898;28;20436;-60
2022/08/06 12:47:36;;;;;;;3.70;2.13;;;33.40;74.50;;;;;;5056148;28;20052;-59
2022/08/06 12:50:19;;;;;;;4.82;2.50;;;33.40;72.20;;;;;;5056014;28;20131;-60
2022/08/06 12:53:00;;;;;;;4.35;2.10;;;33.20;72.90;;;;;;5056401;28;20037;-59
2022/08/06 12:55:28;;;;;;;4.30;2.08;;;33.40;74.30;;;;;;5056008;28;20535;-59
2022/08/06 12:57:54;;;;;;;4.78;2.40;;;33.60;73.20;;;;;;5055906;28;20485;-59
2022/08/06 13:00:21;;;;;;;5.72;2.60;;;33.60;73.10;;;;;;5054509;28;20125;-59
2022/08/06 13:02:48;;;;;;;4.60;2.50;;;33.60;73.50;;;;;;5055813;28;20190;-59
2022/08/06 13:05:15;;;;;;;4.75;2.50;;;33.50;72.70;;;;;;5056129;28;20550;-59
2022/08/06 13:07:42;;;;;;;3.92;2.20;;;33.40;72.20;;;;;;5055373;28;20389;-60
2022/08/06 13:10:12;;;;;;;4.38;2.10;;;33.10;71.90;;;;;;5055724;28;20034;-60